sensor_id;sensor_type;location;lat;lon;timestamp;P1;durP1;ratioP1;P2;durP2;ratioP2
66143;SDS011;52947;50.842;6.084;2022-07-22T00:01:33;9.65;;;3.75;;
66143;SDS011;52947;50.842;6.084;2022-07-22T00:04:02;15.07;;;4.78;;
66143;SDS011;52947;50.842;6.084;2022-07-22T00:06:30;12.95;;;4.00;;
66143;SDS011;52947;50.842;6.084;2022-07-22T00:09:00;8.70;;;4.05;;
66143;SDS011;52947;50.842;6.084;2022-07-22T00:11:28;9.55;;;4.20;;
66143;SDS011;52947;50.842;6.084;2022-07-22T00:13:56;10.30;;;3.92;;
66143;SDS011;52947;50.842;6.084;2022-07-22T00:16:23;12.10;;;4.20;;
66143;SDS011;52947;50.842;6.084;2022-07-22T00:18:51;9.20;;;3.83;;
66143;SDS011;52947;50.842;6.084;2022-07-22T00:21:20;11.88;;;4.07;;
66143;SDS011;52947;50.842;6.084;2022-07-22T00:23:48;12.27;;;3.83;;
66143;SDS011;52947;50.842;6.084;2022-07-22T00:26:17;14.07;;;5.13;;
66143;SDS011;52947;50.842;6.084;2022-07-22T00:28:45;11.13;;;4.07;;
66143;SDS011;52947;50.842;6.084;2022-07-22T00:31:13;8.75;;;4.40;;
66143;SDS011;52947;50.842;6.084;2022-07-22T00:33:42;8.88;;;3.22;;
66143;SDS011;52947;50.842;6.084;2022-07-22T00:36:10;12.05;;;4.82;;
66143;SDS011;52947;50.842;6.084;2022-07-22T00:38:38;9.45;;;4.40;;
66143;SDS011;52947;50.842;6.084;2022-07-22T00:41:06;8.65;;;4.43;;
66143;SDS011;52947;50.842;6.084;2022-07-22T00:43:54;14.00;;;4.93;;
66143;SDS011;52947;50.842;6.084;2022-07-22T00:46:25;9.18;;;3.72;;
66143;SDS011;52947;50.842;6.084;2022-07-22T00:48:54;7.47;;;4.10;;
66143;SDS011;52947;50.842;6.084;2022-07-22T00:53:51;12.30;;;4.53;;
66143;SDS011;52947;50.842;6.084;2022-07-22T00:58:49;11.57;;;4.47;;
66143;SDS011;52947;50.842;6.084;2022-07-22T01:01:20;10.18;;;4.28;;
66143;SDS011;52947;50.842;6.084;2022-07-22T01:03:49;14.82;;;4.68;;
66143;SDS011;52947;50.842;6.084;2022-07-22T01:06:25;13.63;;;4.78;;
66143;SDS011;52947;50.842;6.084;2022-07-22T01:08:54;12.17;;;4.50;;
66143;SDS011;52947;50.842;6.084;2022-07-22T01:11:23;10.55;;;3.78;;
66143;SDS011;52947;50.842;6.084;2022-07-22T01:13:52;13.60;;;3.90;;
66143;SDS011;52947;50.842;6.084;2022-07-22T01:16:22;10.98;;;4.57;;
66143;SDS011;52947;50.842;6.084;2022-07-22T01:18:51;11.13;;;4.20;;
66143;SDS011;52947;50.842;6.084;2022-07-22T01:21:21;12.70;;;4.28;;
66143;SDS011;52947;50.842;6.084;2022-07-22T01:23:49;13.18;;;4.13;;
66143;SDS011;52947;50.842;6.084;2022-07-22T01:26:17;13.87;;;4.10;;
66143;SDS011;52947;50.842;6.084;2022-07-22T01:28:45;11.57;;;4.18;;
66143;SDS011;52947;50.842;6.084;2022-07-22T01:31:13;11.43;;;4.60;;
66143;SDS011;52947;50.842;6.084;2022-07-22T01:33:41;11.80;;;4.72;;
66143;SDS011;52947;50.842;6.084;2022-07-22T01:36:09;7.55;;;3.65;;
66143;SDS011;52947;50.842;6.084;2022-07-22T01:38:39;20.63;;;6.13;;
66143;SDS011;52947;50.842;6.084;2022-07-22T01:41:07;11.07;;;4.72;;
66143;SDS011;52947;50.842;6.084;2022-07-22T01:43:37;11.60;;;5.93;;
66143;SDS011;52947;50.842;6.084;2022-07-22T01:46:06;11.85;;;5.82;;
66143;SDS011;52947;50.842;6.084;2022-07-22T01:48:38;11.90;;;5.93;;
66143;SDS011;52947;50.842;6.084;2022-07-22T01:51:07;12.20;;;4.68;;
66143;SDS011;52947;50.842;6.084;2022-07-22T01:53:36;11.32;;;5.05;;
66143;SDS011;52947;50.842;6.084;2022-07-22T01:56:06;5.53;;;3.10;;
66143;SDS011;52947;50.842;6.084;2022-07-22T01:58:42;7.15;;;3.40;;
66143;SDS011;52947;50.842;6.084;2022-07-22T02:01:12;7.18;;;2.67;;
66143;SDS011;52947;50.842;6.084;2022-07-22T02:03:40;9.68;;;2.80;;
66143;SDS011;52947;50.842;6.084;2022-07-22T02:06:08;7.32;;;2.22;;
66143;SDS011;52947;50.842;6.084;2022-07-22T02:08:36;5.57;;;2.45;;
66143;SDS011;52947;50.842;6.084;2022-07-22T02:11:19;5.78;;;2.33;;
66143;SDS011;52947;50.842;6.084;2022-07-22T02:13:52;4.93;;;2.50;;
66143;SDS011;52947;50.842;6.084;2022-07-22T02:16:20;3.60;;;2.47;;
66143;SDS011;52947;50.842;6.084;2022-07-22T02:18:50;5.38;;;2.83;;
66143;SDS011;52947;50.842;6.084;2022-07-22T02:21:19;4.25;;;2.65;;
66143;SDS011;52947;50.842;6.084;2022-07-22T02:23:49;5.00;;;2.80;;
66143;SDS011;52947;50.842;6.084;2022-07-22T02:26:17;3.50;;;2.40;;
66143;SDS011;52947;50.842;6.084;2022-07-22T02:28:47;3.70;;;2.10;;
66143;SDS011;52947;50.842;6.084;2022-07-22T02:31:14;7.47;;;2.88;;
66143;SDS011;52947;50.842;6.084;2022-07-22T02:33:43;9.43;;;2.63;;
66143;SDS011;52947;50.842;6.084;2022-07-22T02:36:11;4.63;;;2.38;;
66143;SDS011;52947;50.842;6.084;2022-07-22T02:38:39;3.30;;;2.33;;
66143;SDS011;52947;50.842;6.084;2022-07-22T02:41:08;4.57;;;2.30;;
66143;SDS011;52947;50.842;6.084;2022-07-22T02:43:42;4.05;;;2.45;;
66143;SDS011;52947;50.842;6.084;2022-07-22T02:46:11;7.07;;;3.17;;
66143;SDS011;52947;50.842;6.084;2022-07-22T02:48:40;4.68;;;2.55;;
66143;SDS011;52947;50.842;6.084;2022-07-22T02:51:12;4.47;;;2.63;;
66143;SDS011;52947;50.842;6.084;2022-07-22T02:53:40;5.47;;;2.38;;
66143;SDS011;52947;50.842;6.084;2022-07-22T02:56:07;7.25;;;2.40;;
66143;SDS011;52947;50.842;6.084;2022-07-22T02:58:36;6.97;;;2.80;;
66143;SDS011;52947;50.842;6.084;2022-07-22T03:01:03;7.00;;;2.40;;
66143;SDS011;52947;50.842;6.084;2022-07-22T03:03:43;6.38;;;2.50;;
66143;SDS011;52947;50.842;6.084;2022-07-22T03:06:11;4.90;;;2.40;;
66143;SDS011;52947;50.842;6.084;2022-07-22T03:08:44;6.18;;;2.28;;
66143;SDS011;52947;50.842;6.084;2022-07-22T03:13:41;8.90;;;2.60;;
66143;SDS011;52947;50.842;6.084;2022-07-22T03:16:09;4.60;;;2.23;;
66143;SDS011;52947;50.842;6.084;2022-07-22T03:18:38;11.87;;;2.40;;
66143;SDS011;52947;50.842;6.084;2022-07-22T03:21:07;4.32;;;2.60;;
66143;SDS011;52947;50.842;6.084;2022-07-22T03:23:35;3.60;;;2.30;;
66143;SDS011;52947;50.842;6.084;2022-07-22T03:26:03;4.63;;;2.40;;
66143;SDS011;52947;50.842;6.084;2022-07-22T03:28:31;6.50;;;2.77;;
66143;SDS011;52947;50.842;6.084;2022-07-22T03:30:59;4.13;;;2.45;;
66143;SDS011;52947;50.842;6.084;2022-07-22T03:33:27;7.18;;;2.90;;
66143;SDS011;52947;50.842;6.084;2022-07-22T03:35:56;11.57;;;2.92;;
66143;SDS011;52947;50.842;6.084;2022-07-22T03:38:25;6.68;;;2.72;;
66143;SDS011;52947;50.842;6.084;2022-07-22T03:40:53;12.77;;;3.80;;
66143;SDS011;52947;50.842;6.084;2022-07-22T03:43:22;8.27;;;3.90;;
66143;SDS011;52947;50.842;6.084;2022-07-22T03:45:50;9.73;;;3.50;;
66143;SDS011;52947;50.842;6.084;2022-07-22T03:48:18;8.43;;;3.97;;
66143;SDS011;52947;50.842;6.084;2022-07-22T03:50:46;10.45;;;3.72;;
66143;SDS011;52947;50.842;6.084;2022-07-22T03:53:16;9.20;;;4.07;;
66143;SDS011;52947;50.842;6.084;2022-07-22T03:55:45;8.97;;;3.80;;
66143;SDS011;52947;50.842;6.084;2022-07-22T04:00:41;7.80;;;4.00;;
66143;SDS011;52947;50.842;6.084;2022-07-22T04:03:09;13.07;;;3.80;;
66143;SDS011;52947;50.842;6.084;2022-07-22T04:05:51;9.38;;;4.13;;
66143;SDS011;52947;50.842;6.084;2022-07-22T04:08:38;8.00;;;3.80;;
66143;SDS011;52947;50.842;6.084;2022-07-22T04:11:08;8.45;;;3.72;;
66143;SDS011;52947;50.842;6.084;2022-07-22T04:13:36;12.50;;;4.25;;
66143;SDS011;52947;50.842;6.084;2022-07-22T04:16:04;8.93;;;4.28;;
66143;SDS011;52947;50.842;6.084;2022-07-22T04:18:33;10.02;;;4.50;;
66143;SDS011;52947;50.842;6.084;2022-07-22T04:21:01;8.67;;;4.03;;
66143;SDS011;52947;50.842;6.084;2022-07-22T04:23:29;10.07;;;4.28;;
66143;SDS011;52947;50.842;6.084;2022-07-22T04:26:08;7.63;;;3.80;;
66143;SDS011;52947;50.842;6.084;2022-07-22T04:28:36;12.43;;;3.60;;
66143;SDS011;52947;50.842;6.084;2022-07-22T04:31:04;7.35;;;4.45;;
66143;SDS011;52947;50.842;6.084;2022-07-22T04:33:35;13.90;;;4.75;;
66143;SDS011;52947;50.842;6.084;2022-07-22T04:36:03;7.88;;;3.97;;
66143;SDS011;52947;50.842;6.084;2022-07-22T04:38:33;8.30;;;4.05;;
66143;SDS011;52947;50.842;6.084;2022-07-22T04:41:03;8.30;;;3.50;;
66143;SDS011;52947;50.842;6.084;2022-07-22T04:43:33;9.63;;;4.97;;
66143;SDS011;52947;50.842;6.084;2022-07-22T04:46:05;9.30;;;4.60;;
66143;SDS011;52947;50.842;6.084;2022-07-22T04:48:38;10.00;;;4.20;;
66143;SDS011;52947;50.842;6.084;2022-07-22T04:51:06;13.73;;;4.28;;
66143;SDS011;52947;50.842;6.084;2022-07-22T04:53:35;9.75;;;4.10;;
66143;SDS011;52947;50.842;6.084;2022-07-22T04:56:15;7.03;;;4.30;;
66143;SDS011;52947;50.842;6.084;2022-07-22T04:58:45;11.55;;;5.07;;
66143;SDS011;52947;50.842;6.084;2022-07-22T05:01:14;13.98;;;4.28;;
66143;SDS011;52947;50.842;6.084;2022-07-22T05:03:45;7.68;;;4.03;;
66143;SDS011;52947;50.842;6.084;2022-07-22T05:06:13;7.20;;;3.83;;
66143;SDS011;52947;50.842;6.084;2022-07-22T05:08:43;6.93;;;4.10;;
66143;SDS011;52947;50.842;6.084;2022-07-22T05:11:11;9.23;;;4.28;;
66143;SDS011;52947;50.842;6.084;2022-07-22T05:13:39;10.43;;;4.25;;
66143;SDS011;52947;50.842;6.084;2022-07-22T05:16:09;10.85;;;3.83;;
66143;SDS011;52947;50.842;6.084;2022-07-22T05:18:39;7.38;;;3.22;;
66143;SDS011;52947;50.842;6.084;2022-07-22T05:21:11;9.63;;;3.20;;
66143;SDS011;52947;50.842;6.084;2022-07-22T05:23:40;7.82;;;3.00;;
66143;SDS011;52947;50.842;6.084;2022-07-22T05:26:10;6.35;;;3.35;;
66143;SDS011;52947;50.842;6.084;2022-07-22T05:28:38;9.32;;;3.53;;
66143;SDS011;52947;50.842;6.084;2022-07-22T05:31:07;7.75;;;3.30;;
66143;SDS011;52947;50.842;6.084;2022-07-22T05:33:38;7.35;;;3.38;;
66143;SDS011;52947;50.842;6.084;2022-07-22T05:36:29;4.30;;;3.10;;
66143;SDS011;52947;50.842;6.084;2022-07-22T05:38:57;6.55;;;3.25;;
66143;SDS011;52947;50.842;6.084;2022-07-22T05:41:27;6.35;;;2.95;;
66143;SDS011;52947;50.842;6.084;2022-07-22T05:43:55;5.28;;;2.90;;
66143;SDS011;52947;50.842;6.084;2022-07-22T05:46:23;7.20;;;2.83;;
66143;SDS011;52947;50.842;6.084;2022-07-22T05:48:52;5.18;;;2.45;;
66143;SDS011;52947;50.842;6.084;2022-07-22T05:51:22;5.15;;;2.97;;
66143;SDS011;52947;50.842;6.084;2022-07-22T05:53:50;7.37;;;2.73;;
66143;SDS011;52947;50.842;6.084;2022-07-22T05:56:18;7.63;;;3.20;;
66143;SDS011;52947;50.842;6.084;2022-07-22T05:58:47;6.57;;;2.58;;
66143;SDS011;52947;50.842;6.084;2022-07-22T06:01:15;7.57;;;2.25;;
66143;SDS011;52947;50.842;6.084;2022-07-22T06:03:43;8.35;;;3.55;;
66143;SDS011;52947;50.842;6.084;2022-07-22T06:06:14;4.75;;;2.38;;
66143;SDS011;52947;50.842;6.084;2022-07-22T06:08:44;7.63;;;3.20;;
66143;SDS011;52947;50.842;6.084;2022-07-22T06:11:19;11.55;;;2.72;;
66143;SDS011;52947;50.842;6.084;2022-07-22T06:13:47;7.10;;;2.47;;
66143;SDS011;52947;50.842;6.084;2022-07-22T06:16:15;6.20;;;2.58;;
66143;SDS011;52947;50.842;6.084;2022-07-22T06:18:50;5.03;;;2.50;;
66143;SDS011;52947;50.842;6.084;2022-07-22T06:21:19;7.93;;;2.78;;
66143;SDS011;52947;50.842;6.084;2022-07-22T06:23:48;6.93;;;2.42;;
66143;SDS011;52947;50.842;6.084;2022-07-22T06:26:16;7.07;;;2.70;;
66143;SDS011;52947;50.842;6.084;2022-07-22T06:28:44;8.98;;;2.78;;
66143;SDS011;52947;50.842;6.084;2022-07-22T06:31:12;8.27;;;2.45;;
66143;SDS011;52947;50.842;6.084;2022-07-22T06:33:41;3.92;;;2.33;;
66143;SDS011;52947;50.842;6.084;2022-07-22T06:36:09;4.43;;;2.43;;
66143;SDS011;52947;50.842;6.084;2022-07-22T06:41:19;6.25;;;2.50;;
66143;SDS011;52947;50.842;6.084;2022-07-22T06:44:03;5.40;;;2.60;;
66143;SDS011;52947;50.842;6.084;2022-07-22T06:46:45;4.82;;;2.50;;
66143;SDS011;52947;50.842;6.084;2022-07-22T06:49:16;4.00;;;2.40;;
66143;SDS011;52947;50.842;6.084;2022-07-22T06:51:44;12.48;;;3.20;;
66143;SDS011;52947;50.842;6.084;2022-07-22T06:54:14;15.40;;;3.50;;
66143;SDS011;52947;50.842;6.084;2022-07-22T06:56:42;6.03;;;2.80;;
66143;SDS011;52947;50.842;6.084;2022-07-22T06:59:15;8.40;;;3.00;;
66143;SDS011;52947;50.842;6.084;2022-07-22T07:01:43;8.82;;;2.70;;
66143;SDS011;52947;50.842;6.084;2022-07-22T07:04:12;10.80;;;3.15;;
66143;SDS011;52947;50.842;6.084;2022-07-22T07:06:42;19.27;;;3.95;;
66143;SDS011;52947;50.842;6.084;2022-07-22T07:09:17;5.97;;;2.97;;
66143;SDS011;52947;50.842;6.084;2022-07-22T07:11:59;7.43;;;3.10;;
66143;SDS011;52947;50.842;6.084;2022-07-22T07:14:46;5.80;;;3.00;;
66143;SDS011;52947;50.842;6.084;2022-07-22T07:17:34;22.63;;;4.40;;
66143;SDS011;52947;50.842;6.084;2022-07-22T07:20:05;9.23;;;2.90;;
66143;SDS011;52947;50.842;6.084;2022-07-22T07:22:34;6.43;;;2.80;;
66143;SDS011;52947;50.842;6.084;2022-07-22T07:25:04;6.50;;;2.95;;
66143;SDS011;52947;50.842;6.084;2022-07-22T07:27:51;6.32;;;3.08;;
66143;SDS011;52947;50.842;6.084;2022-07-22T07:30:30;6.70;;;3.15;;
66143;SDS011;52947;50.842;6.084;2022-07-22T07:32:58;6.47;;;3.10;;
66143;SDS011;52947;50.842;6.084;2022-07-22T07:35:27;4.75;;;2.80;;
66143;SDS011;52947;50.842;6.084;2022-07-22T07:37:58;7.32;;;2.95;;
66143;SDS011;52947;50.842;6.084;2022-07-22T07:40:27;5.43;;;2.67;;
66143;SDS011;52947;50.842;6.084;2022-07-22T07:42:55;5.38;;;3.13;;
66143;SDS011;52947;50.842;6.084;2022-07-22T07:45:29;4.28;;;2.28;;
66143;SDS011;52947;50.842;6.084;2022-07-22T07:47:57;6.50;;;2.77;;
66143;SDS011;52947;50.842;6.084;2022-07-22T07:50:25;5.90;;;2.50;;
66143;SDS011;52947;50.842;6.084;2022-07-22T07:52:55;6.13;;;2.55;;
66143;SDS011;52947;50.842;6.084;2022-07-22T07:55:25;9.57;;;2.95;;
66143;SDS011;52947;50.842;6.084;2022-07-22T07:57:54;7.47;;;3.00;;
66143;SDS011;52947;50.842;6.084;2022-07-22T08:00:24;5.82;;;3.25;;
66143;SDS011;52947;50.842;6.084;2022-07-22T08:02:55;5.88;;;2.85;;
66143;SDS011;52947;50.842;6.084;2022-07-22T08:05:27;4.60;;;2.75;;
66143;SDS011;52947;50.842;6.084;2022-07-22T08:07:57;4.35;;;2.63;;
66143;SDS011;52947;50.842;6.084;2022-07-22T08:10:26;5.93;;;3.05;;
66143;SDS011;52947;50.842;6.084;2022-07-22T08:13:37;7.35;;;2.90;;
66143;SDS011;52947;50.842;6.084;2022-07-22T08:16:17;5.43;;;2.92;;
66143;SDS011;52947;50.842;6.084;2022-07-22T08:18:47;6.25;;;2.70;;
66143;SDS011;52947;50.842;6.084;2022-07-22T08:21:16;4.32;;;2.78;;
66143;SDS011;52947;50.842;6.084;2022-07-22T08:23:54;3.63;;;2.90;;
66143;SDS011;52947;50.842;6.084;2022-07-22T08:26:22;5.90;;;3.33;;
66143;SDS011;52947;50.842;6.084;2022-07-22T08:28:58;5.07;;;2.90;;
66143;SDS011;52947;50.842;6.084;2022-07-22T08:31:29;7.22;;;3.30;;
66143;SDS011;52947;50.842;6.084;2022-07-22T08:33:59;7.30;;;3.33;;
66143;SDS011;52947;50.842;6.084;2022-07-22T08:36:28;7.53;;;3.50;;
66143;SDS011;52947;50.842;6.084;2022-07-22T08:38:56;5.47;;;3.17;;
66143;SDS011;52947;50.842;6.084;2022-07-22T08:46:26;4.65;;;2.83;;
66143;SDS011;52947;50.842;6.084;2022-07-22T08:49:13;8.23;;;3.30;;
66143;SDS011;52947;50.842;6.084;2022-07-22T08:52:03;6.35;;;3.40;;
66143;SDS011;52947;50.842;6.084;2022-07-22T08:54:41;8.13;;;4.23;;
66143;SDS011;52947;50.842;6.084;2022-07-22T08:57:10;7.60;;;4.18;;
66143;SDS011;52947;50.842;6.084;2022-07-22T08:59:48;6.60;;;3.93;;
66143;SDS011;52947;50.842;6.084;2022-07-22T09:04:52;10.73;;;4.85;;
66143;SDS011;52947;50.842;6.084;2022-07-22T09:07:27;8.15;;;6.78;;
66143;SDS011;52947;50.842;6.084;2022-07-22T09:10:05;9.52;;;6.45;;
66143;SDS011;52947;50.842;6.084;2022-07-22T09:12:53;11.90;;;6.50;;
66143;SDS011;52947;50.842;6.084;2022-07-22T09:15:47;15.95;;;8.57;;
66143;SDS011;52947;50.842;6.084;2022-07-22T09:18:45;12.82;;;7.63;;
66143;SDS011;52947;50.842;6.084;2022-07-22T09:21:46;12.45;;;7.65;;
66143;SDS011;52947;50.842;6.084;2022-07-22T09:24:28;9.73;;;7.50;;
66143;SDS011;52947;50.842;6.084;2022-07-22T09:27:05;15.98;;;8.45;;
66143;SDS011;52947;50.842;6.084;2022-07-22T09:29:53;16.88;;;8.13;;
66143;SDS011;52947;50.842;6.084;2022-07-22T09:32:30;11.50;;;7.90;;
66143;SDS011;52947;50.842;6.084;2022-07-22T09:35:27;19.10;;;8.23;;
66143;SDS011;52947;50.842;6.084;2022-07-22T09:37:56;27.50;;;8.23;;
66143;SDS011;52947;50.842;6.084;2022-07-22T09:40:27;11.43;;;6.43;;
66143;SDS011;52947;50.842;6.084;2022-07-22T09:42:58;12.25;;;7.32;;
66143;SDS011;52947;50.842;6.084;2022-07-22T09:45:27;15.25;;;7.88;;
66143;SDS011;52947;50.842;6.084;2022-07-22T09:47:56;10.80;;;7.03;;
66143;SDS011;52947;50.842;6.084;2022-07-22T09:50:58;9.80;;;6.13;;
66143;SDS011;52947;50.842;6.084;2022-07-22T09:53:33;10.57;;;7.00;;
66143;SDS011;52947;50.842;6.084;2022-07-22T09:56:08;12.10;;;7.40;;
66143;SDS011;52947;50.842;6.084;2022-07-22T09:58:37;10.32;;;7.28;;
66143;SDS011;52947;50.842;6.084;2022-07-22T10:01:20;14.48;;;7.72;;
66143;SDS011;52947;50.842;6.084;2022-07-22T10:03:49;11.75;;;6.53;;
66143;SDS011;52947;50.842;6.084;2022-07-22T10:06:23;9.10;;;5.85;;
66143;SDS011;52947;50.842;6.084;2022-07-22T10:08:51;9.60;;;6.00;;
66143;SDS011;52947;50.842;6.084;2022-07-22T10:11:31;10.27;;;6.68;;
66143;SDS011;52947;50.842;6.084;2022-07-22T10:14:00;7.70;;;5.82;;
66143;SDS011;52947;50.842;6.084;2022-07-22T10:16:28;9.77;;;6.00;;
66143;SDS011;52947;50.842;6.084;2022-07-22T10:21:32;10.10;;;5.85;;
66143;SDS011;52947;50.842;6.084;2022-07-22T10:24:09;9.25;;;6.80;;
66143;SDS011;52947;50.842;6.084;2022-07-22T10:26:48;11.82;;;6.53;;
66143;SDS011;52947;50.842;6.084;2022-07-22T10:29:24;9.98;;;6.47;;
66143;SDS011;52947;50.842;6.084;2022-07-22T10:38:00;8.30;;;5.90;;
66143;SDS011;52947;50.842;6.084;2022-07-22T10:40:31;8.15;;;5.70;;
66143;SDS011;52947;50.842;6.084;2022-07-22T10:43:03;10.07;;;6.22;;
66143;SDS011;52947;50.842;6.084;2022-07-22T10:45:33;8.25;;;5.38;;
66143;SDS011;52947;50.842;6.084;2022-07-22T10:48:04;7.60;;;5.47;;
66143;SDS011;52947;50.842;6.084;2022-07-22T10:50:39;9.60;;;6.00;;
66143;SDS011;52947;50.842;6.084;2022-07-22T10:53:18;8.45;;;5.03;;
66143;SDS011;52947;50.842;6.084;2022-07-22T10:55:57;8.85;;;4.88;;
66143;SDS011;52947;50.842;6.084;2022-07-22T11:01:15;8.80;;;6.60;;
66143;SDS011;52947;50.842;6.084;2022-07-22T11:03:46;7.88;;;5.13;;
66143;SDS011;52947;50.842;6.084;2022-07-22T11:06:20;11.35;;;5.35;;
66143;SDS011;52947;50.842;6.084;2022-07-22T11:08:52;8.95;;;5.90;;
66143;SDS011;52947;50.842;6.084;2022-07-22T11:11:31;8.93;;;5.55;;
66143;SDS011;52947;50.842;6.084;2022-07-22T11:14:01;7.55;;;5.40;;
66143;SDS011;52947;50.842;6.084;2022-07-22T11:16:29;8.47;;;4.63;;
66143;SDS011;52947;50.842;6.084;2022-07-22T11:18:57;8.10;;;5.32;;
66143;SDS011;52947;50.842;6.084;2022-07-22T11:21:27;6.97;;;4.80;;
66143;SDS011;52947;50.842;6.084;2022-07-22T11:23:58;8.75;;;4.82;;
66143;SDS011;52947;50.842;6.084;2022-07-22T11:26:32;7.13;;;4.35;;
66143;SDS011;52947;50.842;6.084;2022-07-22T11:29:03;5.53;;;4.07;;
66143;SDS011;52947;50.842;6.084;2022-07-22T11:31:30;7.60;;;4.45;;
66143;SDS011;52947;50.842;6.084;2022-07-22T11:34:05;9.30;;;5.03;;
66143;SDS011;52947;50.842;6.084;2022-07-22T11:36:35;10.23;;;4.93;;
66143;SDS011;52947;50.842;6.084;2022-07-22T11:39:06;10.50;;;5.65;;
66143;SDS011;52947;50.842;6.084;2022-07-22T11:41:36;6.53;;;4.55;;
66143;SDS011;52947;50.842;6.084;2022-07-22T11:44:04;7.43;;;4.38;;
66143;SDS011;52947;50.842;6.084;2022-07-22T11:46:36;9.65;;;5.63;;
66143;SDS011;52947;50.842;6.084;2022-07-22T11:49:05;8.30;;;5.10;;
66143;SDS011;52947;50.842;6.084;2022-07-22T11:51:35;6.72;;;4.68;;
66143;SDS011;52947;50.842;6.084;2022-07-22T11:54:06;5.53;;;4.40;;
66143;SDS011;52947;50.842;6.084;2022-07-22T11:56:34;7.45;;;4.65;;
66143;SDS011;52947;50.842;6.084;2022-07-22T11:59:03;5.57;;;4.03;;
66143;SDS011;52947;50.842;6.084;2022-07-22T12:01:33;8.75;;;3.28;;
66143;SDS011;52947;50.842;6.084;2022-07-22T12:04:02;8.77;;;3.75;;
66143;SDS011;52947;50.842;6.084;2022-07-22T12:06:32;7.45;;;5.10;;
66143;SDS011;52947;50.842;6.084;2022-07-22T12:09:04;7.55;;;4.30;;
66143;SDS011;52947;50.842;6.084;2022-07-22T12:11:38;6.93;;;3.80;;
66143;SDS011;52947;50.842;6.084;2022-07-22T12:14:08;9.05;;;4.03;;
66143;SDS011;52947;50.842;6.084;2022-07-22T12:16:41;7.00;;;3.97;;
66143;SDS011;52947;50.842;6.084;2022-07-22T12:19:12;6.32;;;3.75;;
66143;SDS011;52947;50.842;6.084;2022-07-22T12:21:50;7.85;;;3.67;;
66143;SDS011;52947;50.842;6.084;2022-07-22T12:24:26;6.00;;;3.58;;
66143;SDS011;52947;50.842;6.084;2022-07-22T12:26:56;6.18;;;3.88;;
66143;SDS011;52947;50.842;6.084;2022-07-22T12:29:26;7.35;;;3.97;;
66143;SDS011;52947;50.842;6.084;2022-07-22T12:31:56;7.13;;;3.65;;
66143;SDS011;52947;50.842;6.084;2022-07-22T12:34:29;44.08;;;6.55;;
66143;SDS011;52947;50.842;6.084;2022-07-22T12:37:11;9.73;;;4.50;;
66143;SDS011;52947;50.842;6.084;2022-07-22T12:39:53;51.25;;;8.48;;
66143;SDS011;52947;50.842;6.084;2022-07-22T12:42:27;9.70;;;4.53;;
66143;SDS011;52947;50.842;6.084;2022-07-22T12:45:00;21.30;;;4.72;;
66143;SDS011;52947;50.842;6.084;2022-07-22T12:50:26;9.80;;;5.50;;
66143;SDS011;52947;50.842;6.084;2022-07-22T12:52:56;6.05;;;4.60;;
66143;SDS011;52947;50.842;6.084;2022-07-22T12:55:45;9.10;;;4.80;;
66143;SDS011;52947;50.842;6.084;2022-07-22T12:58:15;7.10;;;5.28;;
66143;SDS011;52947;50.842;6.084;2022-07-22T13:00:47;10.05;;;4.75;;
66143;SDS011;52947;50.842;6.084;2022-07-22T13:03:16;7.78;;;4.47;;
66143;SDS011;52947;50.842;6.084;2022-07-22T13:05:46;6.88;;;4.75;;
66143;SDS011;52947;50.842;6.084;2022-07-22T13:08:14;9.50;;;4.40;;
66143;SDS011;52947;50.842;6.084;2022-07-22T13:10:43;9.90;;;4.22;;
66143;SDS011;52947;50.842;6.084;2022-07-22T13:13:12;10.05;;;5.20;;
66143;SDS011;52947;50.842;6.084;2022-07-22T13:15:40;7.95;;;4.80;;
66143;SDS011;52947;50.842;6.084;2022-07-22T13:18:08;8.70;;;5.00;;
66143;SDS011;52947;50.842;6.084;2022-07-22T13:20:36;12.00;;;5.57;;
66143;SDS011;52947;50.842;6.084;2022-07-22T13:23:04;7.23;;;4.50;;
66143;SDS011;52947;50.842;6.084;2022-07-22T13:25:32;10.33;;;5.43;;
66143;SDS011;52947;50.842;6.084;2022-07-22T13:28:01;11.07;;;5.38;;
66143;SDS011;52947;50.842;6.084;2022-07-22T13:30:31;10.20;;;4.82;;
66143;SDS011;52947;50.842;6.084;2022-07-22T13:32:59;6.95;;;4.53;;
66143;SDS011;52947;50.842;6.084;2022-07-22T13:35:26;7.40;;;5.03;;
66143;SDS011;52947;50.842;6.084;2022-07-22T13:37:56;10.00;;;4.95;;
66143;SDS011;52947;50.842;6.084;2022-07-22T13:40:24;5.47;;;4.03;;
66143;SDS011;52947;50.842;6.084;2022-07-22T13:42:52;7.03;;;3.85;;
66143;SDS011;52947;50.842;6.084;2022-07-22T13:45:20;6.63;;;4.22;;
66143;SDS011;52947;50.842;6.084;2022-07-22T13:47:49;7.07;;;4.15;;
66143;SDS011;52947;50.842;6.084;2022-07-22T13:50:17;7.35;;;4.38;;
66143;SDS011;52947;50.842;6.084;2022-07-22T13:52:45;6.73;;;4.53;;
66143;SDS011;52947;50.842;6.084;2022-07-22T13:55:13;9.23;;;4.53;;
66143;SDS011;52947;50.842;6.084;2022-07-22T13:57:42;5.70;;;3.80;;
66143;SDS011;52947;50.842;6.084;2022-07-22T14:00:11;8.70;;;4.13;;
66143;SDS011;52947;50.842;6.084;2022-07-22T14:02:40;10.20;;;4.65;;
66143;SDS011;52947;50.842;6.084;2022-07-22T14:05:12;6.93;;;4.32;;
66143;SDS011;52947;50.842;6.084;2022-07-22T14:07:41;7.47;;;4.90;;
66143;SDS011;52947;50.842;6.084;2022-07-22T14:10:09;10.52;;;5.20;;
66143;SDS011;52947;50.842;6.084;2022-07-22T14:12:37;6.97;;;4.13;;
66143;SDS011;52947;50.842;6.084;2022-07-22T14:15:05;8.67;;;4.70;;
66143;SDS011;52947;50.842;6.084;2022-07-22T14:17:34;5.07;;;3.45;;
66143;SDS011;52947;50.842;6.084;2022-07-22T14:20:03;5.25;;;4.25;;
66143;SDS011;52947;50.842;6.084;2022-07-22T14:22:35;16.42;;;4.90;;
66143;SDS011;52947;50.842;6.084;2022-07-22T14:25:03;9.45;;;4.78;;
66143;SDS011;52947;50.842;6.084;2022-07-22T14:27:32;6.45;;;4.25;;
66143;SDS011;52947;50.842;6.084;2022-07-22T14:30:00;9.87;;;4.60;;
66143;SDS011;52947;50.842;6.084;2022-07-22T14:32:28;9.63;;;4.15;;
66143;SDS011;52947;50.842;6.084;2022-07-22T14:34:55;8.03;;;5.30;;
66143;SDS011;52947;50.842;6.084;2022-07-22T14:37:23;6.77;;;4.33;;
66143;SDS011;52947;50.842;6.084;2022-07-22T14:39:54;8.60;;;5.03;;
66143;SDS011;52947;50.842;6.084;2022-07-22T14:42:22;6.70;;;4.43;;
66143;SDS011;52947;50.842;6.084;2022-07-22T14:44:50;8.25;;;4.88;;
66143;SDS011;52947;50.842;6.084;2022-07-22T14:47:18;8.65;;;4.80;;
66143;SDS011;52947;50.842;6.084;2022-07-22T14:49:46;8.25;;;5.10;;
66143;SDS011;52947;50.842;6.084;2022-07-22T14:52:14;9.50;;;4.82;;
66143;SDS011;52947;50.842;6.084;2022-07-22T14:54:42;9.05;;;5.30;;
66143;SDS011;52947;50.842;6.084;2022-07-22T14:57:11;8.85;;;4.60;;
66143;SDS011;52947;50.842;6.084;2022-07-22T14:59:39;8.75;;;4.88;;
66143;SDS011;52947;50.842;6.084;2022-07-22T15:02:06;7.63;;;4.82;;
66143;SDS011;52947;50.842;6.084;2022-07-22T15:04:34;10.70;;;4.03;;
66143;SDS011;52947;50.842;6.084;2022-07-22T15:07:02;7.40;;;3.70;;
66143;SDS011;52947;50.842;6.084;2022-07-22T15:09:30;6.97;;;4.70;;
66143;SDS011;52947;50.842;6.084;2022-07-22T15:11:58;7.67;;;4.03;;
66143;SDS011;52947;50.842;6.084;2022-07-22T15:14:28;7.63;;;4.53;;
66143;SDS011;52947;50.842;6.084;2022-07-22T15:16:55;7.30;;;4.35;;
66143;SDS011;52947;50.842;6.084;2022-07-22T15:19:23;4.87;;;3.33;;
66143;SDS011;52947;50.842;6.084;2022-07-22T15:21:53;5.95;;;3.80;;
66143;SDS011;52947;50.842;6.084;2022-07-22T15:24:21;5.82;;;3.60;;
66143;SDS011;52947;50.842;6.084;2022-07-22T15:26:49;7.67;;;3.43;;
66143;SDS011;52947;50.842;6.084;2022-07-22T15:29:17;5.45;;;3.30;;
66143;SDS011;52947;50.842;6.084;2022-07-22T15:31:46;9.53;;;4.03;;
66143;SDS011;52947;50.842;6.084;2022-07-22T15:34:15;7.10;;;3.90;;
66143;SDS011;52947;50.842;6.084;2022-07-22T15:36:43;8.00;;;3.85;;
66143;SDS011;52947;50.842;6.084;2022-07-22T15:39:11;6.55;;;3.40;;
66143;SDS011;52947;50.842;6.084;2022-07-22T15:41:39;6.97;;;3.50;;